sensor_id;sensor_type;location;lat;lon;timestamp;P1;durP1;ratioP1;P2;durP2;ratioP2
64738;SDS011;51175;51.186;0.276;2023-07-02T00:00:09;33.80;;;17.38;;
64738;SDS011;51175;51.186;0.276;2023-07-02T00:00:40;31.88;;;16.85;;
64738;SDS011;51175;51.186;0.276;2023-07-02T00:01:10;32.92;;;17.83;;
64738;SDS011;51175;51.186;0.276;2023-07-02T00:01:41;25.67;;;15.80;;
64738;SDS011;51175;51.186;0.276;2023-07-02T00:02:11;30.35;;;16.58;;
64738;SDS011;51175;51.186;0.276;2023-07-02T00:02:41;30.92;;;17.98;;
64738;SDS011;51175;51.186;0.276;2023-07-02T00:03:12;33.83;;;17.98;;
64738;SDS011;51175;51.186;0.276;2023-07-02T00:03:42;31.70;;;16.85;;
64738;SDS011;51175;51.186;0.276;2023-07-02T00:04:13;29.35;;;16.52;;
64738;SDS011;51175;51.186;0.276;2023-07-02T00:04:46;28.50;;;16.95;;
64738;SDS011;51175;51.186;0.276;2023-07-02T00:05:16;29.17;;;17.67;;
64738;SDS011;51175;51.186;0.276;2023-07-02T00:05:48;27.05;;;16.60;;
64738;SDS011;51175;51.186;0.276;2023-07-02T00:06:20;28.63;;;16.13;;
64738;SDS011;51175;51.186;0.276;2023-07-02T00:06:51;30.52;;;16.63;;
64738;SDS011;51175;51.186;0.276;2023-07-02T00:07:21;26.60;;;17.25;;
64738;SDS011;51175;51.186;0.276;2023-07-02T00:07:52;34.10;;;17.13;;
64738;SDS011;51175;51.186;0.276;2023-07-02T00:08:22;31.70;;;17.55;;
64738;SDS011;51175;51.186;0.276;2023-07-02T00:08:53;30.23;;;16.88;;
64738;SDS011;51175;51.186;0.276;2023-07-02T00:09:23;34.38;;;17.95;;
64738;SDS011;51175;51.186;0.276;2023-07-02T00:09:54;30.52;;;16.63;;
64738;SDS011;51175;51.186;0.276;2023-07-02T00:10:25;27.65;;;16.48;;
64738;SDS011;51175;51.186;0.276;2023-07-02T00:10:55;32.85;;;17.88;;
64738;SDS011;51175;51.186;0.276;2023-07-02T00:11:26;30.17;;;17.45;;
64738;SDS011;51175;51.186;0.276;2023-07-02T00:11:56;30.60;;;16.13;;
64738;SDS011;51175;51.186;0.276;2023-07-02T00:12:26;28.45;;;17.38;;
64738;SDS011;51175;51.186;0.276;2023-07-02T00:12:57;27.75;;;17.50;;
64738;SDS011;51175;51.186;0.276;2023-07-02T00:13:27;32.90;;;15.52;;
64738;SDS011;51175;51.186;0.276;2023-07-02T00:13:57;27.52;;;16.85;;
64738;SDS011;51175;51.186;0.276;2023-07-02T00:14:28;28.88;;;16.65;;
64738;SDS011;51175;51.186;0.276;2023-07-02T00:15:00;30.15;;;17.08;;
64738;SDS011;51175;51.186;0.276;2023-07-02T00:15:31;23.77;;;14.73;;
64738;SDS011;51175;51.186;0.276;2023-07-02T00:16:01;29.42;;;17.38;;
64738;SDS011;51175;51.186;0.276;2023-07-02T00:16:33;29.38;;;16.98;;
64738;SDS011;51175;51.186;0.276;2023-07-02T00:17:03;28.70;;;17.55;;
64738;SDS011;51175;51.186;0.276;2023-07-02T00:17:34;27.85;;;18.13;;
64738;SDS011;51175;51.186;0.276;2023-07-02T00:18:04;29.10;;;15.63;;
64738;SDS011;51175;51.186;0.276;2023-07-02T00:18:34;29.50;;;17.23;;
64738;SDS011;51175;51.186;0.276;2023-07-02T00:19:05;27.48;;;16.00;;
64738;SDS011;51175;51.186;0.276;2023-07-02T00:19:36;26.35;;;15.38;;
64738;SDS011;51175;51.186;0.276;2023-07-02T00:20:07;27.63;;;16.33;;
64738;SDS011;51175;51.186;0.276;2023-07-02T00:20:38;29.10;;;17.45;;
64738;SDS011;51175;51.186;0.276;2023-07-02T00:21:11;29.27;;;16.30;;
64738;SDS011;51175;51.186;0.276;2023-07-02T00:21:43;29.77;;;17.30;;
64738;SDS011;51175;51.186;0.276;2023-07-02T00:22:16;25.83;;;15.73;;
64738;SDS011;51175;51.186;0.276;2023-07-02T00:22:48;31.42;;;17.83;;
64738;SDS011;51175;51.186;0.276;2023-07-02T00:23:18;29.77;;;16.17;;
64738;SDS011;51175;51.186;0.276;2023-07-02T00:23:50;24.75;;;15.93;;
64738;SDS011;51175;51.186;0.276;2023-07-02T00:24:20;29.35;;;15.77;;
64738;SDS011;51175;51.186;0.276;2023-07-02T00:24:50;28.88;;;16.02;;
64738;SDS011;51175;51.186;0.276;2023-07-02T00:25:21;25.05;;;15.30;;
64738;SDS011;51175;51.186;0.276;2023-07-02T00:25:51;30.63;;;16.80;;
64738;SDS011;51175;51.186;0.276;2023-07-02T00:26:23;24.05;;;16.17;;
64738;SDS011;51175;51.186;0.276;2023-07-02T00:26:57;31.45;;;15.75;;
64738;SDS011;51175;51.186;0.276;2023-07-02T00:27:27;27.92;;;15.18;;
64738;SDS011;51175;51.186;0.276;2023-07-02T00:27:58;30.38;;;16.10;;
64738;SDS011;51175;51.186;0.276;2023-07-02T00:28:28;27.20;;;16.10;;
64738;SDS011;51175;51.186;0.276;2023-07-02T00:28:58;30.75;;;16.92;;
64738;SDS011;51175;51.186;0.276;2023-07-02T00:29:29;28.10;;;18.15;;
64738;SDS011;51175;51.186;0.276;2023-07-02T00:29:59;29.75;;;17.33;;
64738;SDS011;51175;51.186;0.276;2023-07-02T00:30:30;30.35;;;16.05;;
64738;SDS011;51175;51.186;0.276;2023-07-02T00:31:00;30.40;;;15.57;;
64738;SDS011;51175;51.186;0.276;2023-07-02T00:31:32;27.52;;;16.83;;
64738;SDS011;51175;51.186;0.276;2023-07-02T00:32:03;31.33;;;16.25;;
64738;SDS011;51175;51.186;0.276;2023-07-02T00:32:34;26.90;;;16.00;;
64738;SDS011;51175;51.186;0.276;2023-07-02T00:33:04;25.70;;;15.35;;
64738;SDS011;51175;51.186;0.276;2023-07-02T00:33:35;29.33;;;17.55;;
64738;SDS011;51175;51.186;0.276;2023-07-02T00:34:05;31.92;;;17.45;;
64738;SDS011;51175;51.186;0.276;2023-07-02T00:34:35;27.42;;;15.18;;
64738;SDS011;51175;51.186;0.276;2023-07-02T00:35:06;30.17;;;16.45;;
64738;SDS011;51175;51.186;0.276;2023-07-02T00:35:36;31.23;;;16.92;;
64738;SDS011;51175;51.186;0.276;2023-07-02T00:36:07;30.10;;;16.38;;
64738;SDS011;51175;51.186;0.276;2023-07-02T00:36:44;29.45;;;15.50;;
64738;SDS011;51175;51.186;0.276;2023-07-02T00:37:14;30.27;;;17.80;;
64738;SDS011;51175;51.186;0.276;2023-07-02T00:37:45;28.38;;;16.67;;
64738;SDS011;51175;51.186;0.276;2023-07-02T00:38:15;29.05;;;16.10;;
64738;SDS011;51175;51.186;0.276;2023-07-02T00:38:46;27.75;;;15.27;;
64738;SDS011;51175;51.186;0.276;2023-07-02T00:39:18;25.88;;;16.17;;
64738;SDS011;51175;51.186;0.276;2023-07-02T00:39:48;33.83;;;16.58;;
64738;SDS011;51175;51.186;0.276;2023-07-02T00:40:18;33.67;;;16.50;;
64738;SDS011;51175;51.186;0.276;2023-07-02T00:40:49;27.52;;;15.57;;
64738;SDS011;51175;51.186;0.276;2023-07-02T00:41:19;29.42;;;16.70;;
64738;SDS011;51175;51.186;0.276;2023-07-02T00:41:50;31.80;;;16.15;;
64738;SDS011;51175;51.186;0.276;2023-07-02T00:42:21;28.77;;;15.77;;
64738;SDS011;51175;51.186;0.276;2023-07-02T00:42:53;26.42;;;16.02;;
64738;SDS011;51175;51.186;0.276;2023-07-02T00:43:23;26.52;;;15.18;;
64738;SDS011;51175;51.186;0.276;2023-07-02T00:43:54;29.85;;;16.15;;
64738;SDS011;51175;51.186;0.276;2023-07-02T00:44:24;30.05;;;17.13;;
64738;SDS011;51175;51.186;0.276;2023-07-02T00:44:55;34.05;;;16.55;;
64738;SDS011;51175;51.186;0.276;2023-07-02T00:45:27;28.02;;;16.02;;
64738;SDS011;51175;51.186;0.276;2023-07-02T00:45:57;25.65;;;16.85;;
64738;SDS011;51175;51.186;0.276;2023-07-02T00:46:31;27.80;;;15.27;;
64738;SDS011;51175;51.186;0.276;2023-07-02T00:47:01;27.75;;;16.13;;
64738;SDS011;51175;51.186;0.276;2023-07-02T00:47:35;28.77;;;16.55;;
64738;SDS011;51175;51.186;0.276;2023-07-02T00:48:06;27.70;;;15.65;;
64738;SDS011;51175;51.186;0.276;2023-07-02T00:48:38;29.35;;;16.83;;
64738;SDS011;51175;51.186;0.276;2023-07-02T00:49:08;28.92;;;15.20;;
64738;SDS011;51175;51.186;0.276;2023-07-02T00:49:40;28.63;;;15.98;;
64738;SDS011;51175;51.186;0.276;2023-07-02T00:50:10;29.30;;;15.40;;
64738;SDS011;51175;51.186;0.276;2023-07-02T00:50:41;25.45;;;14.77;;
64738;SDS011;51175;51.186;0.276;2023-07-02T00:51:15;27.92;;;15.60;;
64738;SDS011;51175;51.186;0.276;2023-07-02T00:51:48;26.17;;;15.60;;
64738;SDS011;51175;51.186;0.276;2023-07-02T00:52:18;26.60;;;15.88;;
64738;SDS011;51175;51.186;0.276;2023-07-02T00:52:50;25.88;;;15.82;;
64738;SDS011;51175;51.186;0.276;2023-07-02T00:53:20;27.52;;;15.35;;
64738;SDS011;51175;51.186;0.276;2023-07-02T00:53:52;26.00;;;15.95;;
64738;SDS011;51175;51.186;0.276;2023-07-02T00:54:27;30.25;;;15.65;;
64738;SDS011;51175;51.186;0.276;2023-07-02T00:54:58;31.30;;;17.75;;
64738;SDS011;51175;51.186;0.276;2023-07-02T00:55:29;25.92;;;15.00;;
64738;SDS011;51175;51.186;0.276;2023-07-02T00:55:59;27.33;;;15.68;;
64738;SDS011;51175;51.186;0.276;2023-07-02T00:56:29;24.38;;;15.45;;
64738;SDS011;51175;51.186;0.276;2023-07-02T00:57:00;34.17;;;17.38;;
64738;SDS011;51175;51.186;0.276;2023-07-02T00:57:33;27.48;;;15.18;;
64738;SDS011;51175;51.186;0.276;2023-07-02T00:58:03;28.75;;;17.08;;
64738;SDS011;51175;51.186;0.276;2023-07-02T00:58:40;26.50;;;16.35;;
64738;SDS011;51175;51.186;0.276;2023-07-02T00:59:20;30.00;;;16.92;;
64738;SDS011;51175;51.186;0.276;2023-07-02T00:59:51;31.35;;;17.17;;
64738;SDS011;51175;51.186;0.276;2023-07-02T01:00:23;27.88;;;17.30;;
64738;SDS011;51175;51.186;0.276;2023-07-02T01:00:53;25.65;;;15.55;;
64738;SDS011;51175;51.186;0.276;2023-07-02T01:01:26;31.50;;;16.73;;
64738;SDS011;51175;51.186;0.276;2023-07-02T01:01:58;29.77;;;15.88;;
64738;SDS011;51175;51.186;0.276;2023-07-02T01:02:28;25.80;;;16.08;;
64738;SDS011;51175;51.186;0.276;2023-07-02T01:02:59;30.90;;;16.80;;
64738;SDS011;51175;51.186;0.276;2023-07-02T01:03:30;30.02;;;15.35;;
64738;SDS011;51175;51.186;0.276;2023-07-02T01:04:03;32.08;;;16.98;;
64738;SDS011;51175;51.186;0.276;2023-07-02T01:04:35;28.90;;;15.95;;
64738;SDS011;51175;51.186;0.276;2023-07-02T01:05:07;24.15;;;14.95;;
64738;SDS011;51175;51.186;0.276;2023-07-02T01:05:37;27.48;;;16.88;;
64738;SDS011;51175;51.186;0.276;2023-07-02T01:06:08;29.85;;;15.77;;
64738;SDS011;51175;51.186;0.276;2023-07-02T01:06:38;29.48;;;15.63;;
64738;SDS011;51175;51.186;0.276;2023-07-02T01:07:11;27.67;;;15.57;;
64738;SDS011;51175;51.186;0.276;2023-07-02T01:07:42;26.67;;;14.93;;
64738;SDS011;51175;51.186;0.276;2023-07-02T01:08:12;29.73;;;16.63;;
64738;SDS011;51175;51.186;0.276;2023-07-02T01:08:42;25.45;;;14.98;;
64738;SDS011;51175;51.186;0.276;2023-07-02T01:09:13;26.40;;;14.25;;
64738;SDS011;51175;51.186;0.276;2023-07-02T01:09:43;21.92;;;13.93;;
64738;SDS011;51175;51.186;0.276;2023-07-02T01:10:14;31.15;;;17.50;;
64738;SDS011;51175;51.186;0.276;2023-07-02T01:10:44;27.77;;;15.57;;
64738;SDS011;51175;51.186;0.276;2023-07-02T01:11:15;26.83;;;14.95;;
64738;SDS011;51175;51.186;0.276;2023-07-02T01:11:53;25.35;;;15.05;;
64738;SDS011;51175;51.186;0.276;2023-07-02T01:12:25;30.13;;;16.35;;
64738;SDS011;51175;51.186;0.276;2023-07-02T01:12:57;29.05;;;16.00;;
64738;SDS011;51175;51.186;0.276;2023-07-02T01:13:34;25.42;;;14.93;;
64738;SDS011;51175;51.186;0.276;2023-07-02T01:14:08;32.75;;;15.98;;
64738;SDS011;51175;51.186;0.276;2023-07-02T01:14:41;27.98;;;15.30;;
64738;SDS011;51175;51.186;0.276;2023-07-02T01:15:17;26.98;;;16.00;;
64738;SDS011;51175;51.186;0.276;2023-07-02T01:15:47;29.35;;;16.27;;
64738;SDS011;51175;51.186;0.276;2023-07-02T01:16:19;26.70;;;15.35;;
64738;SDS011;51175;51.186;0.276;2023-07-02T01:16:50;26.65;;;16.02;;
64738;SDS011;51175;51.186;0.276;2023-07-02T01:17:22;25.10;;;15.15;;
64738;SDS011;51175;51.186;0.276;2023-07-02T01:17:54;31.10;;;15.82;;
64738;SDS011;51175;51.186;0.276;2023-07-02T01:18:25;29.63;;;16.08;;
64738;SDS011;51175;51.186;0.276;2023-07-02T01:18:56;25.08;;;13.77;;
64738;SDS011;51175;51.186;0.276;2023-07-02T01:19:33;33.28;;;14.95;;
64738;SDS011;51175;51.186;0.276;2023-07-02T01:20:21;30.30;;;16.05;;
64738;SDS011;51175;51.186;0.276;2023-07-02T01:20:52;30.45;;;16.00;;
64738;SDS011;51175;51.186;0.276;2023-07-02T01:21:23;26.45;;;15.27;;
64738;SDS011;51175;51.186;0.276;2023-07-02T01:21:55;21.63;;;13.20;;
64738;SDS011;51175;51.186;0.276;2023-07-02T01:22:27;32.97;;;15.50;;
64738;SDS011;51175;51.186;0.276;2023-07-02T01:23:00;30.48;;;15.73;;
64738;SDS011;51175;51.186;0.276;2023-07-02T01:23:33;31.38;;;15.95;;
64738;SDS011;51175;51.186;0.276;2023-07-02T01:24:04;27.80;;;14.48;;
64738;SDS011;51175;51.186;0.276;2023-07-02T01:24:35;29.27;;;15.43;;
64738;SDS011;51175;51.186;0.276;2023-07-02T01:25:07;22.73;;;13.93;;
64738;SDS011;51175;51.186;0.276;2023-07-02T01:25:38;26.60;;;15.35;;
64738;SDS011;51175;51.186;0.276;2023-07-02T01:26:09;30.58;;;14.80;;
64738;SDS011;51175;51.186;0.276;2023-07-02T01:26:40;26.20;;;14.82;;
64738;SDS011;51175;51.186;0.276;2023-07-02T01:27:10;31.58;;;15.85;;
64738;SDS011;51175;51.186;0.276;2023-07-02T01:27:40;29.13;;;14.75;;
64738;SDS011;51175;51.186;0.276;2023-07-02T01:28:11;26.45;;;14.32;;
64738;SDS011;51175;51.186;0.276;2023-07-02T01:28:43;27.10;;;14.80;;
64738;SDS011;51175;51.186;0.276;2023-07-02T01:29:17;32.08;;;14.82;;
64738;SDS011;51175;51.186;0.276;2023-07-02T01:29:52;28.92;;;15.10;;
64738;SDS011;51175;51.186;0.276;2023-07-02T01:30:23;30.63;;;15.05;;
64738;SDS011;51175;51.186;0.276;2023-07-02T01:30:54;24.70;;;15.30;;
64738;SDS011;51175;51.186;0.276;2023-07-02T01:31:24;26.35;;;14.75;;
64738;SDS011;51175;51.186;0.276;2023-07-02T01:31:55;26.55;;;15.45;;
64738;SDS011;51175;51.186;0.276;2023-07-02T01:32:26;27.83;;;14.70;;
64738;SDS011;51175;51.186;0.276;2023-07-02T01:32:57;27.25;;;15.30;;
64738;SDS011;51175;51.186;0.276;2023-07-02T01:33:27;30.35;;;15.07;;
64738;SDS011;51175;51.186;0.276;2023-07-02T01:33:58;26.50;;;14.82;;
64738;SDS011;51175;51.186;0.276;2023-07-02T01:34:28;28.67;;;14.82;;
64738;SDS011;51175;51.186;0.276;2023-07-02T01:34:58;22.50;;;13.90;;
64738;SDS011;51175;51.186;0.276;2023-07-02T01:35:31;29.88;;;14.88;;
64738;SDS011;51175;51.186;0.276;2023-07-02T01:36:01;28.25;;;13.88;;
64738;SDS011;51175;51.186;0.276;2023-07-02T01:36:31;30.17;;;15.27;;
64738;SDS011;51175;51.186;0.276;2023-07-02T01:37:05;25.75;;;13.82;;
64738;SDS011;51175;51.186;0.276;2023-07-02T01:37:36;31.33;;;16.30;;
64738;SDS011;51175;51.186;0.276;2023-07-02T01:38:07;27.50;;;14.63;;
64738;SDS011;51175;51.186;0.276;2023-07-02T01:38:38;30.08;;;14.63;;
64738;SDS011;51175;51.186;0.276;2023-07-02T01:39:08;25.65;;;13.45;;
64738;SDS011;51175;51.186;0.276;2023-07-02T01:39:38;27.30;;;14.05;;
64738;SDS011;51175;51.186;0.276;2023-07-02T01:40:09;28.00;;;14.77;;
64738;SDS011;51175;51.186;0.276;2023-07-02T01:40:40;28.42;;;13.38;;
64738;SDS011;51175;51.186;0.276;2023-07-02T01:41:10;23.63;;;13.45;;
64738;SDS011;51175;51.186;0.276;2023-07-02T01:41:53;28.65;;;15.18;;
64738;SDS011;51175;51.186;0.276;2023-07-02T01:42:25;27.90;;;14.45;;
64738;SDS011;51175;51.186;0.276;2023-07-02T01:42:55;24.77;;;13.35;;
64738;SDS011;51175;51.186;0.276;2023-07-02T01:43:25;29.55;;;14.43;;
64738;SDS011;51175;51.186;0.276;2023-07-02T01:43:56;25.55;;;14.05;;
64738;SDS011;51175;51.186;0.276;2023-07-02T01:44:26;27.73;;;14.15;;
64738;SDS011;51175;51.186;0.276;2023-07-02T01:44:56;22.75;;;13.60;;
64738;SDS011;51175;51.186;0.276;2023-07-02T01:45:27;30.08;;;14.27;;
64738;SDS011;51175;51.186;0.276;2023-07-02T01:45:58;31.67;;;14.23;;
64738;SDS011;51175;51.186;0.276;2023-07-02T01:46:29;26.60;;;14.98;;
64738;SDS011;51175;51.186;0.276;2023-07-02T01:46:59;29.90;;;14.48;;
64738;SDS011;51175;51.186;0.276;2023-07-02T01:47:30;25.65;;;14.63;;
64738;SDS011;51175;51.186;0.276;2023-07-02T01:48:00;25.65;;;14.77;;
64738;SDS011;51175;51.186;0.276;2023-07-02T01:48:30;30.02;;;15.00;;
64738;SDS011;51175;51.186;0.276;2023-07-02T01:49:01;27.90;;;13.70;;
64738;SDS011;51175;51.186;0.276;2023-07-02T01:49:31;31.23;;;15.02;;
64738;SDS011;51175;51.186;0.276;2023-07-02T01:50:03;26.95;;;14.65;;
64738;SDS011;51175;51.186;0.276;2023-07-02T01:50:35;24.55;;;13.95;;
64738;SDS011;51175;51.186;0.276;2023-07-02T01:51:05;25.30;;;14.13;;
64738;SDS011;51175;51.186;0.276;2023-07-02T01:51:36;25.65;;;12.93;;
64738;SDS011;51175;51.186;0.276;2023-07-02T01:52:08;28.45;;;15.02;;
64738;SDS011;51175;51.186;0.276;2023-07-02T01:52:38;27.33;;;15.07;;
64738;SDS011;51175;51.186;0.276;2023-07-02T01:53:09;25.58;;;13.20;;
64738;SDS011;51175;51.186;0.276;2023-07-02T01:53:39;30.92;;;14.65;;
64738;SDS011;51175;51.186;0.276;2023-07-02T01:54:09;27.70;;;13.77;;
64738;SDS011;51175;51.186;0.276;2023-07-02T01:54:40;29.40;;;16.42;;
64738;SDS011;51175;51.186;0.276;2023-07-02T01:55:10;25.85;;;14.50;;
64738;SDS011;51175;51.186;0.276;2023-07-02T01:55:41;27.45;;;13.68;;
64738;SDS011;51175;51.186;0.276;2023-07-02T01:56:11;28.27;;;14.77;;
64738;SDS011;51175;51.186;0.276;2023-07-02T01:56:41;26.95;;;15.27;;
64738;SDS011;51175;51.186;0.276;2023-07-02T01:57:12;25.63;;;14.68;;
64738;SDS011;51175;51.186;0.276;2023-07-02T01:57:42;28.73;;;14.98;;
64738;SDS011;51175;51.186;0.276;2023-07-02T01:58:13;26.48;;;13.85;;
64738;SDS011;51175;51.186;0.276;2023-07-02T01:58:43;24.65;;;13.48;;
64738;SDS011;51175;51.186;0.276;2023-07-02T01:59:14;26.13;;;14.70;;
64738;SDS011;51175;51.186;0.276;2023-07-02T01:59:45;26.02;;;13.02;;
64738;SDS011;51175;51.186;0.276;2023-07-02T02:00:15;25.38;;;14.20;;
64738;SDS011;51175;51.186;0.276;2023-07-02T02:00:46;30.55;;;16.25;;
64738;SDS011;51175;51.186;0.276;2023-07-02T02:01:16;26.85;;;14.10;;
64738;SDS011;51175;51.186;0.276;2023-07-02T02:01:46;30.05;;;14.20;;
64738;SDS011;51175;51.186;0.276;2023-07-02T02:02:17;28.95;;;14.45;;
64738;SDS011;51175;51.186;0.276;2023-07-02T02:02:47;28.70;;;13.25;;
64738;SDS011;51175;51.186;0.276;2023-07-02T02:03:18;25.20;;;13.27;;
64738;SDS011;51175;51.186;0.276;2023-07-02T02:03:48;29.60;;;14.50;;
64738;SDS011;51175;51.186;0.276;2023-07-02T02:04:18;26.52;;;13.73;;
64738;SDS011;51175;51.186;0.276;2023-07-02T02:04:49;25.45;;;14.20;;
64738;SDS011;51175;51.186;0.276;2023-07-02T02:05:19;28.15;;;14.10;;
64738;SDS011;51175;51.186;0.276;2023-07-02T02:05:50;27.02;;;13.68;;
64738;SDS011;51175;51.186;0.276;2023-07-02T02:06:20;26.13;;;14.23;;
64738;SDS011;51175;51.186;0.276;2023-07-02T02:06:50;24.60;;;15.10;;
64738;SDS011;51175;51.186;0.276;2023-07-02T02:07:22;23.45;;;13.35;;
64738;SDS011;51175;51.186;0.276;2023-07-02T02:07:52;26.77;;;13.68;;
64738;SDS011;51175;51.186;0.276;2023-07-02T02:08:22;28.00;;;14.82;;
64738;SDS011;51175;51.186;0.276;2023-07-02T02:08:53;26.63;;;13.82;;
64738;SDS011;51175;51.186;0.276;2023-07-02T02:09:23;28.27;;;14.07;;
64738;SDS011;51175;51.186;0.276;2023-07-02T02:09:53;31.77;;;14.38;;
64738;SDS011;51175;51.186;0.276;2023-07-02T02:10:24;26.85;;;16.30;;
64738;SDS011;51175;51.186;0.276;2023-07-02T02:10:54;26.60;;;13.02;;
64738;SDS011;51175;51.186;0.276;2023-07-02T02:11:25;22.48;;;13.18;;
64738;SDS011;51175;51.186;0.276;2023-07-02T02:11:55;25.35;;;13.32;;
64738;SDS011;51175;51.186;0.276;2023-07-02T02:12:25;29.75;;;14.43;;
64738;SDS011;51175;51.186;0.276;2023-07-02T02:12:58;29.77;;;14.07;;
64738;SDS011;51175;51.186;0.276;2023-07-02T02:13:28;28.23;;;13.73;;
64738;SDS011;51175;51.186;0.276;2023-07-02T02:13:59;27.35;;;13.52;;
64738;SDS011;51175;51.186;0.276;2023-07-02T02:14:32;25.27;;;14.43;;
64738;SDS011;51175;51.186;0.276;2023-07-02T02:15:03;27.88;;;13.73;;
64738;SDS011;51175;51.186;0.276;2023-07-02T02:15:33;26.92;;;13.55;;
64738;SDS011;51175;51.186;0.276;2023-07-02T02:16:04;24.42;;;12.98;;
64738;SDS011;51175;51.186;0.276;2023-07-02T02:16:34;27.17;;;14.32;;
64738;SDS011;51175;51.186;0.276;2023-07-02T02:17:05;25.38;;;13.63;;
64738;SDS011;51175;51.186;0.276;2023-07-02T02:17:35;23.73;;;14.05;;
64738;SDS011;51175;51.186;0.276;2023-07-02T02:18:05;24.95;;;13.77;;
64738;SDS011;51175;51.186;0.276;2023-07-02T02:18:36;26.15;;;13.85;;
64738;SDS011;51175;51.186;0.276;2023-07-02T02:19:07;25.10;;;13.23;;
64738;SDS011;51175;51.186;0.276;2023-07-02T02:19:37;30.25;;;14.40;;
64738;SDS011;51175;51.186;0.276;2023-07-02T02:20:07;23.33;;;12.93;;
64738;SDS011;51175;51.186;0.276;2023-07-02T02:20:39;27.20;;;13.93;;
64738;SDS011;51175;51.186;0.276;2023-07-02T02:21:11;26.60;;;15.02;;
64738;SDS011;51175;51.186;0.276;2023-07-02T02:21:41;32.97;;;14.27;;
64738;SDS011;51175;51.186;0.276;2023-07-02T02:22:12;28.40;;;13.80;;
64738;SDS011;51175;51.186;0.276;2023-07-02T02:22:42;26.98;;;13.93;;
64738;SDS011;51175;51.186;0.276;2023-07-02T02:23:13;26.70;;;14.20;;
64738;SDS011;51175;51.186;0.276;2023-07-02T02:23:43;27.08;;;13.55;;
64738;SDS011;51175;51.186;0.276;2023-07-02T02:24:14;27.23;;;13.60;;
64738;SDS011;51175;51.186;0.276;2023-07-02T02:24:44;26.85;;;12.82;;
64738;SDS011;51175;51.186;0.276;2023-07-02T02:25:15;23.38;;;12.88;;
64738;SDS011;51175;51.186;0.276;2023-07-02T02:25:45;26.60;;;13.77;;
64738;SDS011;51175;51.186;0.276;2023-07-02T02:26:16;29.10;;;12.75;;
64738;SDS011;51175;51.186;0.276;2023-07-02T02:26:46;25.17;;;13.50;;
64738;SDS011;51175;51.186;0.276;2023-07-02T02:27:16;23.77;;;12.75;;
64738;SDS011;51175;51.186;0.276;2023-07-02T02:27:47;26.30;;;13.20;;
64738;SDS011;51175;51.186;0.276;2023-07-02T02:28:17;24.92;;;13.60;;
64738;SDS011;51175;51.186;0.276;2023-07-02T02:28:48;28.00;;;14.55;;
64738;SDS011;51175;51.186;0.276;2023-07-02T02:29:22;26.73;;;14.02;;
64738;SDS011;51175;51.186;0.276;2023-07-02T02:29:52;23.85;;;12.93;;
64738;SDS011;51175;51.186;0.276;2023-07-02T02:30:23;24.38;;;13.27;;
64738;SDS011;51175;51.186;0.276;2023-07-02T02:30:53;23.38;;;13.55;;
64738;SDS011;51175;51.186;0.276;2023-07-02T02:31:23;31.13;;;13.23;;
64738;SDS011;51175;51.186;0.276;2023-07-02T02:31:54;27.35;;;14.80;;
64738;SDS011;51175;51.186;0.276;2023-07-02T02:32:24;27.60;;;13.32;;
64738;SDS011;51175;51.186;0.276;2023-07-02T02:32:55;28.02;;;13.27;;
64738;SDS011;51175;51.186;0.276;2023-07-02T02:33:25;34.35;;;13.75;;
64738;SDS011;51175;51.186;0.276;2023-07-02T02:33:56;30.10;;;14.32;;
64738;SDS011;51175;51.186;0.276;2023-07-02T02:34:26;27.13;;;12.45;;
64738;SDS011;51175;51.186;0.276;2023-07-02T02:34:58;26.95;;;13.10;;
64738;SDS011;51175;51.186;0.276;2023-07-02T02:35:29;24.55;;;11.98;;
64738;SDS011;51175;51.186;0.276;2023-07-02T02:35:59;31.05;;;13.82;;
64738;SDS011;51175;51.186;0.276;2023-07-02T02:36:29;26.63;;;14.43;;
64738;SDS011;51175;51.186;0.276;2023-07-02T02:37:00;25.38;;;14.10;;
64738;SDS011;51175;51.186;0.276;2023-07-02T02:37:30;30.05;;;13.90;;
64738;SDS011;51175;51.186;0.276;2023-07-02T02:38:03;26.48;;;13.93;;
64738;SDS011;51175;51.186;0.276;2023-07-02T02:38:34;25.92;;;13.10;;
64738;SDS011;51175;51.186;0.276;2023-07-02T02:39:07;28.80;;;14.13;;
64738;SDS011;51175;51.186;0.276;2023-07-02T02:39:37;27.63;;;13.20;;
64738;SDS011;51175;51.186;0.276;2023-07-02T02:40:08;29.42;;;13.90;;
64738;SDS011;51175;51.186;0.276;2023-07-02T02:40:41;24.92;;;13.32;;
64738;SDS011;51175;51.186;0.276;2023-07-02T02:41:12;26.65;;;14.32;;
64738;SDS011;51175;51.186;0.276;2023-07-02T02:41:42;23.80;;;13.27;;
64738;SDS011;51175;51.186;0.276;2023-07-02T02:42:12;26.67;;;14.27;;
64738;SDS011;51175;51.186;0.276;2023-07-02T02:42:43;22.02;;;12.07;;
64738;SDS011;51175;51.186;0.276;2023-07-02T02:43:13;25.02;;;13.75;;
64738;SDS011;51175;51.186;0.276;2023-07-02T02:43:46;28.23;;;12.77;;
64738;SDS011;51175;51.186;0.276;2023-07-02T02:44:17;25.27;;;13.50;;
64738;SDS011;51175;51.186;0.276;2023-07-02T02:44:47;28.63;;;13.05;;
64738;SDS011;51175;51.186;0.276;2023-07-02T02:45:17;22.58;;;12.45;;
64738;SDS011;51175;51.186;0.276;2023-07-02T02:45:48;25.55;;;12.45;;
64738;SDS011;51175;51.186;0.276;2023-07-02T02:46:21;29.38;;;14.27;;
64738;SDS011;51175;51.186;0.276;2023-07-02T02:46:52;29.00;;;14.23;;
64738;SDS011;51175;51.186;0.276;2023-07-02T02:47:23;27.55;;;13.77;;
64738;SDS011;51175;51.186;0.276;2023-07-02T02:47:53;25.48;;;12.80;;
64738;SDS011;51175;51.186;0.276;2023-07-02T02:48:23;26.80;;;13.18;;
64738;SDS011;51175;51.186;0.276;2023-07-02T02:48:54;29.42;;;13.02;;
64738;SDS011;51175;51.186;0.276;2023-07-02T02:49:24;28.20;;;13.60;;
64738;SDS011;51175;51.186;0.276;2023-07-02T02:49:55;23.13;;;12.93;;
64738;SDS011;51175;51.186;0.276;2023-07-02T02:50:25;27.42;;;13.50;;
64738;SDS011;51175;51.186;0.276;2023-07-02T02:50:56;25.60;;;13.35;;
64738;SDS011;51175;51.186;0.276;2023-07-02T02:51:27;27.60;;;13.68;;
64738;SDS011;51175;51.186;0.276;2023-07-02T02:51:57;24.55;;;13.15;;
64738;SDS011;51175;51.186;0.276;2023-07-02T02:52:28;22.38;;;11.95;;
64738;SDS011;51175;51.186;0.276;2023-07-02T02:52:58;24.52;;;13.68;;
64738;SDS011;51175;51.186;0.276;2023-07-02T02:53:28;22.60;;;12.75;;
64738;SDS011;51175;51.186;0.276;2023-07-02T02:53:59;26.27;;;13.75;;
64738;SDS011;51175;51.186;0.276;2023-07-02T02:54:29;23.88;;;11.45;;
64738;SDS011;51175;51.186;0.276;2023-07-02T02:54:59;28.02;;;14.15;;
64738;SDS011;51175;51.186;0.276;2023-07-02T02:55:30;26.98;;;12.18;;
64738;SDS011;51175;51.186;0.276;2023-07-02T02:56:00;25.45;;;12.90;;
64738;SDS011;51175;51.186;0.276;2023-07-02T02:56:31;25.02;;;13.07;;
64738;SDS011;51175;51.186;0.276;2023-07-02T02:57:01;28.30;;;12.35;;
64738;SDS011;51175;51.186;0.276;2023-07-02T02:57:32;25.35;;;12.82;;
64738;SDS011;51175;51.186;0.276;2023-07-02T02:58:03;21.92;;;13.35;;
64738;SDS011;51175;51.186;0.276;2023-07-02T02:58:34;25.05;;;13.32;;
64738;SDS011;51175;51.186;0.276;2023-07-02T02:59:04;22.55;;;12.73;;
64738;SDS011;51175;51.186;0.276;2023-07-02T02:59:35;22.55;;;11.98;;
64738;SDS011;51175;51.186;0.276;2023-07-02T03:00:05;22.98;;;12.00;;
64738;SDS011;51175;51.186;0.276;2023-07-02T03:00:37;27.73;;;14.02;;
64738;SDS011;51175;51.186;0.276;2023-07-02T03:01:08;27.80;;;13.32;;
64738;SDS011;51175;51.186;0.276;2023-07-02T03:01:41;22.00;;;12.35;;